createdAt,value
2022-11-09T00:01:43.215Z,100175.94
2022-11-09T00:04:10.533Z,100177.63
2022-11-09T00:06:37.312Z,100171.44
2022-11-09T00:09:07.856Z,100178.88
2022-11-09T00:11:35.954Z,100175.34
2022-11-09T00:14:04.436Z,100185.19
2022-11-09T00:16:30.983Z,100179.13
2022-11-09T00:18:57.599Z,100169.41
2022-11-09T00:21:25.272Z,100175.59
2022-11-09T00:23:52.599Z,100166.63
2022-11-09T00:26:20.510Z,100164.91
2022-11-09T00:28:47.213Z,100164.06
2022-11-09T00:31:17.578Z,100161.28
2022-11-09T00:33:50.816Z,100161.28
2022-11-09T00:36:18.596Z,100157.91
2022-11-09T00:38:49.377Z,100155.94
2022-11-09T00:41:16.389Z,100156.22
2022-11-09T00:43:42.991Z,100146.63
2022-11-09T00:46:09.657Z,100153.22
2022-11-09T00:48:36.822Z,100151.41
2022-11-09T00:51:03.967Z,100163.50
2022-11-09T00:53:31.143Z,100169.13
2022-11-09T00:56:00.179Z,100171.63
2022-11-09T00:58:32.262Z,100172.63
2022-11-09T01:01:00.805Z,100176.53
2022-11-09T01:03:30.260Z,100186.38
2022-11-09T01:05:59.655Z,100176.66
2022-11-09T01:08:26.604Z,100174.13
2022-11-09T01:10:53.312Z,100179.47
2022-11-09T01:13:20.291Z,100174.00
2022-11-09T01:15:53.121Z,100174.13
2022-11-09T01:18:20.935Z,100174.47
2022-11-09T01:20:48.781Z,100173.88
2022-11-09T01:23:17.127Z,100179.22
2022-11-09T01:25:43.944Z,100182.84
2022-11-09T01:28:11.486Z,100189.31
2022-11-09T01:30:41.195Z,100186.78
2022-11-09T01:33:09.900Z,100199.03
2022-11-09T01:35:37.673Z,100194.78
2022-11-09T01:38:05.633Z,100200.84
2022-11-09T01:40:34.166Z,100192.34
2022-11-09T01:43:09.050Z,100203.03
2022-11-09T01:45:35.667Z,100196.03
2022-11-09T01:48:12.571Z,100197.25
2022-11-09T01:50:59.170Z,100193.88
2022-11-09T01:53:31.681Z,100199.47
2022-11-09T01:56:02.005Z,100199.59
2022-11-09T01:58:31.939Z,100198.50
2022-11-09T02:01:00.437Z,100198.75
2022-11-09T02:03:36.419Z,100196.34
2022-11-09T02:06:05.428Z,100192.25
2022-11-09T02:08:32.073Z,100186.31
2022-11-09T02:11:09.026Z,100180.38
2022-11-09T02:13:38.724Z,100188.28
2022-11-09T02:16:06.295Z,100197.38
2022-11-09T02:18:33.112Z,100185.28
2022-11-09T02:20:59.791Z,100194.38
2022-11-09T02:23:26.915Z,100197.16
2022-11-09T02:25:57.188Z,100188.19
2022-11-09T02:28:24.295Z,100185.91
2022-11-09T02:30:52.449Z,100191.34
2022-11-09T02:33:19.351Z,100191.25
2022-11-09T02:35:46.245Z,100183.63
2022-11-09T02:38:14.625Z,100188.22
2022-11-09T02:40:44.426Z,100183.88
2022-11-09T02:43:12.212Z,100186.13
2022-11-09T02:45:38.764Z,100188.97
2022-11-09T02:48:05.799Z,100185.22
2022-11-09T02:50:32.835Z,100185.34
2022-11-09T02:52:59.421Z,100181.72
2022-11-09T02:55:26.036Z,100183.78
2022-11-09T02:57:52.695Z,100194.47
2022-11-09T03:00:19.392Z,100193.63
2022-11-09T03:02:46.026Z,100197.13
2022-11-09T03:05:12.732Z,100193.34
2022-11-09T03:07:39.374Z,100197.13
2022-11-09T03:10:06.380Z,100199.19
2022-11-09T03:12:33.011Z,100193.63
2022-11-09T03:15:02.121Z,100196.97
2022-11-09T03:17:28.991Z,100195.31
2022-11-09T03:19:55.744Z,100203.31
2022-11-09T03:22:22.436Z,100205.72
2022-11-09T03:24:49.282Z,100211.78
2022-11-09T03:27:16.590Z,100213.50
2022-11-09T03:29:43.255Z,100217.81
2022-11-09T03:32:10.467Z,100215.88
2022-11-09T03:34:37.117Z,100225.59
2022-11-09T03:37:04.101Z,100218.16
2022-11-09T03:39:30.728Z,100229.19
2022-11-09T03:41:57.314Z,100222.16
2022-11-09T03:44:23.928Z,100218.28
2022-11-09T03:46:50.616Z,100229.53
2022-11-09T03:49:17.238Z,100224.78
2022-11-09T03:51:43.857Z,100228.16
2022-11-09T03:54:10.450Z,100229.88
2022-11-09T03:56:37.084Z,100229.88
2022-11-09T03:59:03.770Z,100234.97
2022-11-09T04:01:30.644Z,100235.94
2022-11-09T04:03:57.279Z,100229.88
2022-11-09T04:06:23.979Z,100228.91
2022-11-09T04:08:51.671Z,100229.88
2022-11-09T04:11:18.474Z,100229.47
2022-11-09T04:13:45.064Z,100224.97
2022-11-09T04:16:12.542Z,100229.34
2022-11-09T04:18:39.272Z,100245.38
2022-11-09T04:21:05.912Z,100229.47
2022-11-09T04:23:32.535Z,100223.28
2022-11-09T04:25:59.847Z,100232.16
2022-11-09T04:28:26.876Z,100231.56
2022-11-09T04:30:53.487Z,100236.78
2022-11-09T04:33:20.393Z,100245.66
2022-11-09T04:35:50.960Z,100239.19
2022-11-09T04:38:17.607Z,100253.38
2022-11-09T04:40:44.247Z,100259.69
2022-11-09T04:43:13.609Z,100262.25
2022-11-09T04:45:40.652Z,100271.22
2022-11-09T04:48:08.058Z,100269.41
2022-11-09T04:50:35.077Z,100266.00
2022-11-09T04:53:10.115Z,100282.41
2022-11-09T04:55:37.138Z,100287.16
2022-11-09T04:58:03.940Z,100285.97
2022-11-09T05:00:30.805Z,100277.50
2022-11-09T05:03:02.007Z,100281.13
2022-11-09T05:05:29.348Z,100278.84
2022-11-09T05:07:56.349Z,100286.13
2022-11-09T05:10:22.944Z,100280.78
2022-11-09T05:12:49.577Z,100273.75
2022-11-09T05:15:16.191Z,100279.19
2022-11-09T05:17:42.909Z,100277.16
2022-11-09T05:20:10.150Z,100275.44
2022-11-09T05:22:58.857Z,100271.19
2022-11-09T05:25:25.697Z,100272.03
2022-11-09T05:27:52.931Z,100264.03
2022-11-09T05:30:20.050Z,100270.22
2022-11-09T05:32:46.717Z,100274.59
2022-11-09T05:35:13.391Z,100274.47
2022-11-09T05:37:40.352Z,100265.53
2022-11-09T05:40:08.276Z,100251.13
2022-11-09T05:42:35.483Z,100251.63
2022-11-09T05:45:27.907Z,100245.06
2022-11-09T05:47:48.715Z,100247.75
2022-11-09T05:50:16.240Z,100241.69
2022-11-09T05:52:42.828Z,100261.56
2022-11-09T05:55:09.503Z,100264.25
2022-11-09T05:57:36.395Z,100262.69
2022-11-09T06:00:09.883Z,100259.75
2022-11-09T06:02:37.557Z,100252.81
2022-11-09T06:05:04.382Z,100251.63
2022-11-09T06:07:31.164Z,100251.63
2022-11-09T06:09:57.731Z,100255.25
2022-11-09T06:12:24.512Z,100258.78
2022-11-09T06:14:51.200Z,100268.59
2022-11-09T06:17:17.867Z,100262.28
2022-11-09T06:19:44.555Z,100264.97
2022-11-09T06:22:12.467Z,100267.75
2022-11-09T06:24:45.494Z,100265.19
2022-11-09T06:27:12.215Z,100269.44
2022-11-09T06:29:38.978Z,100271.84
2022-11-09T06:32:05.912Z,100264.69
2022-11-09T06:34:32.483Z,100273.22
2022-11-09T06:37:01.605Z,100282.41
2022-11-09T06:39:28.169Z,100276.13
2022-11-09T06:41:54.816Z,100274.41
2022-11-09T06:44:21.407Z,100280.88
2022-11-09T06:46:48.043Z,100288.59
2022-11-09T06:49:14.662Z,100281.19
2022-11-09T06:51:41.331Z,100283.16
2022-11-09T06:54:08.113Z,100279.63
2022-11-09T06:56:34.921Z,100280.59
2022-11-09T06:59:01.561Z,100281.56
2022-11-09T07:01:29.733Z,100296.13
2022-11-09T07:03:56.499Z,100293.69
2022-11-09T07:06:23.375Z,100300.03
2022-11-09T07:08:56.601Z,100306.19
2022-11-09T07:11:23.262Z,100311.50
2022-11-09T07:13:54.803Z,100311.00
2022-11-09T07:16:23.866Z,100314.53
2022-11-09T07:18:50.501Z,100325.19
2022-11-09T07:21:17.138Z,100322.41
2022-11-09T07:23:43.886Z,100320.81
2022-11-09T07:26:10.573Z,100328.94
2022-11-09T07:28:37.189Z,100332.59
2022-11-09T07:31:03.954Z,100335.38
2022-11-09T07:33:32.796Z,100335.00
2022-11-09T07:36:01.687Z,100331.59
2022-11-09T07:38:29.371Z,100342.91
2022-11-09T07:41:02.965Z,100343.22
2022-11-09T07:43:34.593Z,100335.38
2022-11-09T07:46:03.809Z,100341.41
2022-11-09T07:48:30.407Z,100342.25
2022-11-09T07:50:57.489Z,100346.75
2022-11-09T07:53:24.273Z,100353.28
2022-11-09T07:55:58.669Z,100355.00
2022-11-09T07:58:25.514Z,100358.50
2022-11-09T08:00:52.517Z,100353.88
2022-11-09T08:03:20.900Z,100356.34
2022-11-09T08:05:48.702Z,100357.66
2022-11-09T08:08:21.394Z,100353.31
2022-11-09T08:10:51.661Z,100364.94
2022-11-09T08:13:19.660Z,100365.41
2022-11-09T08:15:47.755Z,100361.78
2022-11-09T08:18:16.886Z,100357.78
2022-11-09T08:20:47.308Z,100368.97
2022-11-09T08:23:15.488Z,100363.63
2022-11-09T08:25:42.313Z,100378.41
2022-11-09T08:28:14.331Z,100372.34
2022-11-09T08:30:41.590Z,100378.53
2022-11-09T08:33:08.271Z,100374.16
2022-11-09T08:35:34.992Z,100382.81
2022-11-09T08:38:04.020Z,100387.31
2022-11-09T08:40:31.613Z,100381.97
2022-11-09T08:43:07.728Z,100371.31
2022-11-09T08:45:36.194Z,100384.72
2022-11-09T08:48:03.728Z,100381.19
2022-11-09T08:50:31.492Z,100392.72
2022-11-09T08:52:58.597Z,100383.00
2022-11-09T08:55:25.268Z,100388.16
2022-11-09T08:57:59.098Z,100397.09
2022-11-09T09:00:26.355Z,100395.50
2022-11-09T09:02:53.340Z,100387.06
2022-11-09T09:05:21.354Z,100385.97
2022-11-09T09:07:48.013Z,100389.88
2022-11-09T09:10:14.672Z,100393.72
2022-11-09T09:12:41.391Z,100408.53
2022-11-09T09:15:08.549Z,100389.97
2022-11-09T09:17:35.733Z,100388.75
2022-11-09T09:20:02.884Z,100395.41
2022-11-09T09:22:32.512Z,100382.34
2022-11-09T09:24:59.634Z,100395.19
2022-11-09T09:27:26.387Z,100403.31
2022-11-09T09:29:53.066Z,100402.34
2022-11-09T09:32:19.767Z,100407.09
2022-11-09T09:34:46.490Z,100399.78
2022-11-09T09:37:19.469Z,100405.63
2022-11-09T09:39:46.130Z,100406.59
2022-11-09T09:42:19.226Z,100402.72
2022-11-09T09:44:54.853Z,100406.00
2022-11-09T09:47:38.281Z,100409.63
2022-11-09T09:50:11.884Z,100427.09
2022-11-09T09:53:22.554Z,100424.06
2022-11-09T09:55:53.525Z,100433.03
2022-11-09T09:58:46.152Z,100424.53
2022-11-09T10:01:17.217Z,100426.88
2022-11-09T10:03:43.950Z,100435.09
2022-11-09T10:06:19.469Z,100434.38
2022-11-09T10:08:58.120Z,100446.63
2022-11-09T10:11:41.953Z,100441.16
2022-11-09T10:14:19.249Z,100451.22
2022-11-09T10:17:04.598Z,100438.22
2022-11-09T10:19:34.204Z,100441.25
2022-11-09T10:22:10.412Z,100447.94
2022-11-09T10:24:48.518Z,100444.13
2022-11-09T10:27:33.287Z,100449.47
2022-11-09T10:30:03.411Z,100437.31
2022-11-09T10:32:32.787Z,100446.47
2022-11-09T10:35:14.593Z,100452.28
2022-11-09T10:37:44.593Z,100453.34
2022-11-09T10:40:41.524Z,100454.16
2022-11-09T10:43:13.624Z,100464.91
2022-11-09T10:46:18.253Z,100457.38
2022-11-09T10:51:51.805Z,100445.75
2022-11-09T10:54:32.718Z,100454.97
2022-11-09T10:57:21.474Z,100453.00
2022-11-09T10:59:58.315Z,100454.78
2022-11-09T11:02:25.035Z,100445.41
2022-11-09T11:05:07.098Z,100458.31
2022-11-09T11:07:35.574Z,100444.66
2022-11-09T11:10:14.711Z,100445.69
2022-11-09T11:12:43.094Z,100464.16
2022-11-09T11:15:37.065Z,100453.56
2022-11-09T11:18:05.937Z,100474.06
2022-11-09T11:20:37.459Z,100465.66
2022-11-09T11:23:16.347Z,100458.38
2022-11-09T11:25:58.249Z,100464.34
2022-11-09T11:28:44.646Z,100455.16
2022-11-09T11:31:15.768Z,100465.06
2022-11-09T11:33:42.743Z,100456.66
2022-11-09T11:36:31.064Z,100467.31
2022-11-09T11:39:25.335Z,100470.50
2022-11-09T11:42:22.837Z,100468.22
2022-11-09T11:45:26.071Z,100468.44
2022-11-09T11:48:06.787Z,100460.19
2022-11-09T11:50:56.668Z,100467.22
2022-11-09T11:53:27.366Z,100475.16
2022-11-09T11:56:11.974Z,100479.69
2022-11-09T11:59:23.062Z,100468.28
2022-11-09T12:01:54.712Z,100486.38
2022-11-09T12:04:41.264Z,100478.41
2022-11-09T12:07:08.094Z,100468.84
2022-11-09T12:10:12.512Z,100478.44
2022-11-09T12:13:16.205Z,100514.47
2022-11-09T12:16:10.471Z,100481.59
2022-11-09T12:19:23.873Z,100477.44
2022-11-09T12:22:09.671Z,100472.97
2022-11-09T12:25:00.476Z,100485.88
2022-11-09T12:27:37.519Z,100489.16
2022-11-09T12:30:17.805Z,100498.09
2022-11-09T12:33:03.763Z,100485.69
2022-11-09T12:35:54.388Z,100487.97
2022-11-09T12:38:37.222Z,100486.34
2022-11-09T12:41:34.447Z,100485.94
2022-11-09T12:44:05.760Z,100480.22
2022-11-09T12:46:41.813Z,100491.03
2022-11-09T12:49:22.055Z,100487.84
2022-11-09T12:51:49.099Z,100473.03
2022-11-09T12:54:15.943Z,100475.03
2022-11-09T12:57:00.396Z,100473.31
2022-11-09T12:59:27.113Z,100484.50
2022-11-09T13:02:05.013Z,100482.94
2022-11-09T13:04:31.880Z,100486.22
2022-11-09T13:07:09.709Z,100488.50
2022-11-09T13:09:44.717Z,100481.94
2022-11-09T13:12:19.765Z,100490.25
2022-11-09T13:14:46.832Z,100509.63
2022-11-09T13:17:28.835Z,100497.16
2022-11-09T13:19:56.361Z,100492.53
2022-11-09T13:22:25.745Z,100484.41
2022-11-09T13:25:00.577Z,100473.69
2022-11-09T13:27:33.368Z,100489.97
2022-11-09T13:30:23.849Z,100478.31
2022-11-09T13:33:05.977Z,100490.91
2022-11-09T13:35:42.999Z,100505.25
2022-11-09T13:38:20.614Z,100501.28
2022-11-09T13:40:48.737Z,100494.75
2022-11-09T13:43:18.457Z,100495.69
2022-11-09T13:46:13.635Z,100501.38
2022-11-09T13:48:54.347Z,100499.50
2022-11-09T13:51:36.188Z,100512.63
2022-11-09T13:54:26.324Z,100505.97
2022-11-09T13:56:53.417Z,100514.03
2022-11-09T13:59:32.769Z,100523.88
2022-11-09T14:02:01.111Z,100518.28
2022-11-09T14:04:30.937Z,100520.47
2022-11-09T14:07:22.327Z,100539.91
2022-11-09T14:10:07.593Z,100529.25
2022-11-09T14:12:42.181Z,100549.81
2022-11-09T14:15:30.543Z,100543.22
2022-11-09T14:18:08.044Z,100545.16
2022-11-09T14:20:42.043Z,100544.44
2022-11-09T14:23:20.431Z,100543.81
2022-11-09T14:25:52.255Z,100551.13
2022-11-09T14:28:23.773Z,100560.22
2022-11-09T14:30:50.655Z,100558.88
2022-11-09T14:33:29.372Z,100565.06
2022-11-09T14:35:58.022Z,100562.66
2022-11-09T14:38:30.104Z,100573.66
2022-11-09T14:40:56.947Z,100572.84
2022-11-09T14:43:40.886Z,100573.94
2022-11-09T14:46:16.441Z,100579.09
2022-11-09T14:48:53.321Z,100573.47
2022-11-09T14:51:22.868Z,100569.94
2022-11-09T14:53:50.337Z,100568.72
2022-11-09T14:56:19.891Z,100570.91
2022-11-09T14:58:46.956Z,100578.56
2022-11-09T15:01:21.340Z,100587.69
2022-11-09T15:04:14.045Z,100585.34
2022-11-09T15:06:52.594Z,100595.31
2022-11-09T15:09:22.676Z,100588.97
2022-11-09T15:11:50.242Z,100605.16
2022-11-09T15:14:19.862Z,100608.91
2022-11-09T15:16:49.901Z,100611.69
2022-11-09T15:19:31.932Z,100616.16
2022-11-09T15:21:59.165Z,100608.25
2022-11-09T15:24:28.237Z,100617.13
2022-11-09T15:26:56.311Z,100624.16
2022-11-09T15:29:27.880Z,100620.97
2022-11-09T15:32:11.225Z,100618.06
2022-11-09T15:34:40.675Z,100629.00
2022-11-09T15:37:30.462Z,100630.03
2022-11-09T15:39:58.600Z,100634.63
2022-11-09T15:42:26.888Z,100645.31
2022-11-09T15:44:58.981Z,100641.41
2022-11-09T15:47:33.960Z,100646.13
2022-11-09T15:50:04.197Z,100652.88
2022-11-09T15:52:31.224Z,100652.25
2022-11-09T15:54:57.888Z,100652.63
2022-11-09T15:57:24.554Z,100655.59
2022-11-09T15:59:52.090Z,100647.72
2022-11-09T16:02:24.840Z,100654.19
2022-11-09T16:04:57.651Z,100654.09
2022-11-09T16:07:24.410Z,100659.78
2022-11-09T16:09:51.051Z,100652.34
2022-11-09T16:12:17.826Z,100652.69
2022-11-09T16:14:50.817Z,100661.75
2022-11-09T16:17:17.634Z,100662.94
2022-11-09T16:19:46.561Z,100663.91
2022-11-09T16:22:13.301Z,100666.91
2022-11-09T16:24:40.646Z,100675.00
2022-11-09T16:27:12.853Z,100671.59
2022-11-09T16:29:49.078Z,100679.59
2022-11-09T16:32:18.227Z,100689.41
2022-11-09T16:34:57.748Z,100697.53
2022-11-09T16:37:36.288Z,100694.44
2022-11-09T16:40:08.962Z,100708.63
2022-11-09T16:42:35.692Z,100711.28
2022-11-09T16:45:12.082Z,100712.16
2022-11-09T16:47:42.939Z,100705.31
2022-11-09T16:50:10.235Z,100712.69
2022-11-09T16:52:36.968Z,100704.44
2022-11-09T16:55:04.112Z,100713.44
2022-11-09T16:57:30.833Z,100721.53
2022-11-09T16:59:57.560Z,100723.00
2022-11-09T17:02:25.778Z,100729.19
2022-11-09T17:04:53.600Z,100726.97
2022-11-09T17:07:20.626Z,100735.91
2022-11-09T17:09:47.400Z,100733.78
2022-11-09T17:12:14.413Z,100739.34
2022-11-09T17:14:47.085Z,100739.53
2022-11-09T17:17:18.196Z,100744.16
2022-11-09T17:19:48.034Z,100746.06
2022-11-09T17:22:14.971Z,100758.19
2022-11-09T17:24:42.179Z,100756.50
2022-11-09T17:27:09.708Z,100752.03
2022-11-09T17:29:39.846Z,100769.84
2022-11-09T17:32:10.216Z,100771.84
2022-11-09T17:34:43.553Z,100770.13
2022-11-09T17:37:10.179Z,100783.78
2022-11-09T17:39:36.838Z,100784.00
2022-11-09T17:42:03.695Z,100793.69
2022-11-09T17:44:30.418Z,100788.56
2022-11-09T17:46:57.226Z,100802.84
2022-11-09T17:49:23.871Z,100799.56
2022-11-09T17:51:50.498Z,100800.28
2022-11-09T17:54:17.284Z,100810.94
2022-11-09T17:56:52.969Z,100817.97
2022-11-09T17:59:19.829Z,100816.16
2022-11-09T18:01:46.476Z,100822.25
2022-11-09T18:04:18.488Z,100822.88
2022-11-09T18:06:46.548Z,100835.47
2022-11-09T18:09:40.420Z,100840.69
2022-11-09T18:11:59.932Z,100826.63
2022-11-09T18:14:28.631Z,100848.34
2022-11-09T18:16:55.306Z,100847.78
2022-11-09T18:19:22.110Z,100854.81
2022-11-09T18:21:48.789Z,100870.81
2022-11-09T18:24:15.602Z,100869.22
2022-11-09T18:26:42.345Z,100872.06
2022-11-09T18:29:09.112Z,100871.34
2022-11-09T18:31:38.391Z,100881.00
2022-11-09T18:34:05.700Z,100882.09
2022-11-09T18:36:32.481Z,100879.81
2022-11-09T18:38:59.206Z,100895.03
2022-11-09T18:41:26.672Z,100899.50
2022-11-09T18:43:54.250Z,100894.09
2022-11-09T18:46:30.810Z,100896.84
2022-11-09T18:48:57.535Z,100898.47
2022-11-09T18:51:25.059Z,100900.06
2022-11-09T18:53:51.940Z,100904.03
2022-11-09T18:56:24.598Z,100910.13
2022-11-09T18:58:53.133Z,100914.59
2022-11-09T19:01:20.979Z,100919.16
2022-11-09T19:03:47.670Z,100916.72
2022-11-09T19:06:16.537Z,100918.50
2022-11-09T19:09:01.725Z,100932.78
2022-11-09T19:11:30.131Z,100918.59
2022-11-09T19:13:57.528Z,100934.81
2022-11-09T19:16:26.734Z,100932.53
2022-11-09T19:18:53.837Z,100940.63
2022-11-09T19:21:36.025Z,100939.13
2022-11-09T19:24:03.337Z,100945.56
2022-11-09T19:26:29.981Z,100950.25
2022-11-09T19:28:56.594Z,100952.16
2022-11-09T19:31:24.071Z,100954.81
2022-11-09T19:33:52.314Z,100958.59
2022-11-09T19:36:35.083Z,100963.06
2022-11-09T19:39:02.343Z,100959.84
2022-11-09T19:41:29.507Z,100955.66
2022-11-09T19:43:58.837Z,100956.50
2022-11-09T19:46:34.281Z,100966.41
2022-11-09T19:49:01.516Z,100970.88
2022-11-09T19:51:31.892Z,100977.16
2022-11-09T19:53:59.964Z,100974.41
2022-11-09T19:56:28.753Z,100985.31
2022-11-09T19:58:57.890Z,100990.06
2022-11-09T20:01:25.094Z,100983.88
2022-11-09T20:03:53.457Z,100988.56
2022-11-09T20:06:20.972Z,100989.69
2022-11-09T20:08:47.898Z,101006.63
2022-11-09T20:11:35.817Z,100999.50
2022-11-09T20:14:03.721Z,101018.88
2022-11-09T20:16:31.601Z,101024.00
2022-11-09T20:18:58.808Z,101017.16
2022-11-09T20:21:25.440Z,101028.00
2022-11-09T20:23:52.205Z,101017.81
2022-11-09T20:26:18.926Z,101040.97
2022-11-09T20:28:45.630Z,101038.97
2022-11-09T20:31:15.158Z,101044.31
2022-11-09T20:33:42.475Z,101056.56
2022-11-09T20:36:09.380Z,101051.34
2022-11-09T20:38:36.449Z,101052.28
2022-11-09T20:41:05.897Z,101057.97
2022-11-09T20:43:33.044Z,101061.84
2022-11-09T20:46:04.508Z,101061.28
2022-11-09T20:48:52.880Z,101061.72
2022-11-09T20:51:19.505Z,101066.00
2022-11-09T20:53:47.200Z,101068.75
2022-11-09T20:56:14.555Z,101077.75
2022-11-09T20:58:41.640Z,101085.56
2022-11-09T21:01:12.347Z,101084.19
2022-11-09T21:03:39.211Z,101086.88
2022-11-09T21:06:07.274Z,101093.31
2022-11-09T21:08:34.279Z,101089.53
2022-11-09T21:11:01.916Z,101095.03
2022-11-09T21:13:28.922Z,101105.81
2022-11-09T21:15:55.664Z,101094.34
2022-11-09T21:18:22.662Z,101089.28
2022-11-09T21:20:49.582Z,101104.47
2022-11-09T21:23:16.201Z,101104.09
2022-11-09T21:26:02.381Z,101099.25
2022-11-09T21:28:48.030Z,101101.81
2022-11-09T21:31:14.909Z,101108.06
2022-11-09T21:33:41.842Z,101106.38
2022-11-09T21:36:09.215Z,101104.66
2022-11-09T21:38:37.089Z,101108.75
2022-11-09T21:41:24.401Z,101111.94
2022-11-09T21:43:54.922Z,101112.94
2022-11-09T21:46:22.526Z,101117.50
2022-11-09T21:48:49.934Z,101116.47
2022-11-09T21:51:16.901Z,101122.84
2022-11-09T21:53:43.546Z,101120.34
2022-11-09T21:56:10.292Z,101121.34
2022-11-09T21:58:37.021Z,101121.53
2022-11-09T22:01:05.914Z,101127.13
2022-11-09T22:03:36.129Z,101134.25
2022-11-09T22:06:03.069Z,101136.91
2022-11-09T22:08:30.036Z,101137.06
2022-11-09T22:11:07.410Z,101133.38
2022-11-09T22:13:52.803Z,101139.47
2022-11-09T22:16:20.275Z,101141.28
2022-11-09T22:19:05.592Z,101144.94
2022-11-09T22:21:33.028Z,101144.00
2022-11-09T22:24:00.684Z,101138.69
2022-11-09T22:26:28.310Z,101146.41
2022-11-09T22:28:55.504Z,101144.94
2022-11-09T22:31:22.204Z,101138.00
2022-11-09T22:33:48.964Z,101151.28
2022-11-09T22:36:16.544Z,101143.31
2022-11-09T22:38:48.210Z,101148.88
2022-11-09T22:41:15.549Z,101157.44
2022-11-09T22:43:43.731Z,101162.75
2022-11-09T22:46:15.621Z,101164.41
2022-11-09T22:48:43.874Z,101163.28
2022-11-09T22:51:15.382Z,101158.16
2022-11-09T22:53:42.350Z,101163.28
2022-11-09T22:56:10.699Z,101166.28
2022-11-09T22:58:37.431Z,101171.53
2022-11-09T23:01:16.346Z,101177.50
2022-11-09T23:03:43.476Z,101182.00
2022-11-09T23:06:15.888Z,101190.13
2022-11-09T23:08:42.793Z,101191.84
2022-11-09T23:11:15.738Z,101193.47
2022-11-09T23:13:43.591Z,101196.13
2022-11-09T23:16:11.538Z,101199.75
2022-11-09T23:18:54.012Z,101198.88
2022-11-09T23:21:27.980Z,101208.31
2022-11-09T23:23:56.613Z,101211.84
2022-11-09T23:26:24.503Z,101215.25
2022-11-09T23:28:51.233Z,101214.38
2022-11-09T23:31:19.716Z,101219.47
2022-11-09T23:33:49.554Z,101223.66
2022-11-09T23:36:16.240Z,101226.38
2022-11-09T23:38:42.924Z,101227.31
2022-11-09T23:41:11.713Z,101231.97
2022-11-09T23:43:39.189Z,101240.97
2022-11-09T23:46:08.708Z,101242.88
2022-11-09T23:48:35.685Z,101260.34
2022-11-09T23:51:03.761Z,101256.31
2022-11-09T23:53:31.288Z,101259.66
2022-11-09T23:56:10.575Z,101266.19
2022-11-09T23:58:37.968Z,101268.06
